Kapuskasing Airport
CYYU : now visible

Airfield :











YOU CAN JOIN US ON...

 
LOGIN :

Register | Disclaimer

   EN    FR    IT 

 









Legend :    VFR   Marginal VFR   IFR   Intensive IFR   Very Intensive IFR
Visi :
Ceiling :
>= 8 km
>= 3000ft
5 to 8 km
1000 to 3000 ft
1500m to 5 km
500 to 1000 ft
800 to 1500m
200 to 500 ft
< 800m
< 200 ft
Symbols :   Thunderstorms  Fog  Heavy snow  Heavy precipitations  Wind > 20 kt






- Airport Elevation : 743 ft
- IATA code : YYU


CYYU - Kapuskasing

CURRENT METAR :
  • 270400Z 35005KT 10SM -SN OVC049 M18/M21 A3020 RMK SC8 SLP254

EXPIRED METARs :
  • 270300Z 34005KT 12SM -SN OVC048 M19/M21 A3020 RMK SC8 SLP253
  • 270200Z 35005KT 12SM -SN BKN050 M19/M21 A3019 RMK SC5 SLP251

TAF TAF CYYU
Valid from the 27 at 02:00 until the 27 at 14:00 UTC


270138Z 2702/2714 35005KT P6SM BKN050
TEMPO 2702/2714 5SM -SN BKN020 OVC050
BECMG 2706/2708 30006KT RMK NXT FCST BY 270800Z
CZYZ FIR / North America



MET'MAP, your aeronautical weather chart ! - Copyright ORBIFLY December 2007 - Disclaimer

ORBIFLY MET'MAP TEAM :

Programming & Development : Alexandra Zaïnal
Concept & original design : Baudouin d'Aumeries
Assistance for programming : Marc-Olivier Méhu
Technical & hardware support : Manuel Goepfert

Contact : metmap@orbifly.com




SOURCES & CREDITS :

   NOAA       Earth
Advisory